Time;durP1;ratioP1;P1;durP2;ratioP2;P2;SDS_P1;SDS_P2;PMS_P1;PMS_P2;Temp;Humidity;BMP_temperature;BMP_pressure;BME280_temperature;BME280_humidity;BME280_pressure;Samples;Min_cycle;Max_cycle;Signal;HPM_P1;HPM_P2
2024/01/17 00:00:28;;;;;;;6.55;5.93;;;-1.10;99.90;;;;;;5046548;28;20029;-85
2024/01/17 00:02:54;;;;;;;7.22;6.57;;;0.00;99.90;;;;;;5048082;28;20079;-85
2024/01/17 00:05:19;;;;;;;7.30;6.57;;;-1.10;99.90;;;;;;5033976;28;20044;-85
2024/01/17 00:07:45;;;;;;;8.65;6.65;;;-1.10;99.90;;;;;;5048138;28;20511;-85
2024/01/17 00:10:11;;;;;;;9.13;7.93;;;-1.10;99.90;;;;;;5054743;28;20088;-86
2024/01/17 00:12:36;;;;;;;7.10;6.22;;;-1.10;99.90;;;;;;5038856;28;20044;-86
2024/01/17 00:15:03;;;;;;;8.13;7.32;;;-1.10;99.90;;;;;;5031444;28;20123;-87
2024/01/17 00:17:28;;;;;;;6.18;5.68;;;-1.10;99.90;;;;;;5046040;28;20049;-87
2024/01/17 00:19:54;;;;;;;6.93;6.18;;;-1.10;99.90;;;;;;5050680;28;20064;-85
2024/01/17 00:22:20;;;;;;;9.10;7.07;;;-1.20;99.90;;;;;;5064047;28;20068;-85
2024/01/17 00:24:45;;;;;;;8.45;6.68;;;-1.10;99.90;;;;;;5047628;28;20102;-84
2024/01/17 00:27:14;;;;;;;7.78;6.68;;;-1.10;99.90;;;;;;5064695;28;20037;-88
2024/01/17 00:29:40;;;;;;;8.63;7.82;;;-1.10;99.90;;;;;;5047745;28;20045;-89
2024/01/17 00:32:06;;;;;;;7.25;5.78;;;-1.10;99.90;;;;;;5047992;28;20043;-87
2024/01/17 00:34:32;;;;;;;8.30;7.38;;;-0.80;99.90;;;;;;5029941;28;20087;-85
2024/01/17 00:36:57;;;;;;;8.25;7.43;;;-1.10;99.90;;;;;;5032965;28;20048;-89
2024/01/17 00:39:23;;;;;;;8.38;7.50;;;-1.10;99.90;;;;;;5029352;28;20033;-88
2024/01/17 00:41:49;;;;;;;8.77;7.95;;;-1.20;99.90;;;;;;5030893;28;20037;-90
2024/01/17 00:44:18;;;;;;;8.15;7.35;;;-1.20;99.90;;;;;;5055952;28;20416;-85
2024/01/17 00:46:44;;;;;;;8.00;7.20;;;-1.10;99.90;;;;;;5031230;28;20079;-92
2024/01/17 00:49:11;;;;;;;9.23;7.15;;;-1.20;99.90;;;;;;5048750;28;20092;-88
2024/01/17 00:51:37;;;;;;;12.60;9.05;;;-1.20;99.90;;;;;;5032089;28;20064;-90
2024/01/17 00:54:03;;;;;;;10.48;9.38;;;-1.20;99.90;;;;;;5031075;28;20083;-89
2024/01/17 00:56:32;;;;;;;11.85;9.23;;;-1.10;99.90;;;;;;5033916;28;20045;-85
2024/01/17 00:59:01;;;;;;;8.40;7.47;;;0.20;99.90;;;;;;5047508;28;20045;-86
2024/01/17 01:01:26;;;;;;;8.35;7.10;;;-1.10;99.90;;;;;;5031164;28;20104;-87
2024/01/17 01:03:52;;;;;;;10.15;8.65;;;-1.00;99.90;;;;;;5032861;28;20105;-86
2024/01/17 01:06:18;;;;;;;10.30;7.60;;;-1.10;99.90;;;;;;5029770;28;20048;-84
2024/01/17 01:08:43;;;;;;;9.23;8.20;;;-1.10;99.90;;;;;;5063582;28;20056;-86
2024/01/17 01:11:09;;;;;;;9.05;7.97;;;-1.10;99.90;;;;;;5054847;28;20064;-87
2024/01/17 01:13:35;;;;;;;8.30;7.32;;;-1.10;99.90;;;;;;5035551;28;20083;-86
2024/01/17 01:16:03;;;;;;;9.35;8.38;;;-1.10;99.90;;;;;;5031614;28;20395;-89
2024/01/17 01:18:30;;;;;;;10.13;6.78;;;-1.20;99.90;;;;;;5029103;28;20045;-91
2024/01/17 01:20:57;;;;;;;9.65;8.65;;;0.10;99.90;;;;;;5047065;28;20056;-89
2024/01/17 01:23:25;;;;;;;8.07;6.30;;;-1.20;99.90;;;;;;5046248;28;20052;-85
2024/01/17 01:25:51;;;;;;;9.07;8.15;;;-1.20;99.90;;;;;;5063150;28;20440;-87
2024/01/17 01:28:17;;;;;;;8.07;7.18;;;0.20;99.90;;;;;;5036131;28;20044;-86
2024/01/17 01:30:42;;;;;;;9.95;7.80;;;-1.10;99.90;;;;;;5044701;28;20041;-88
2024/01/17 01:33:08;;;;;;;10.60;8.18;;;-0.10;99.90;;;;;;5029910;28;20044;-85
2024/01/17 01:35:34;;;;;;;10.05;8.15;;;-1.20;99.90;;;;;;5027886;28;20514;-89
2024/01/17 01:37:59;;;;;;;9.88;7.60;;;0.40;99.90;;;;;;5056872;28;20083;-86
2024/01/17 01:40:25;;;;;;;10.80;8.20;;;-1.20;99.90;;;;;;5045728;28;20041;-87
2024/01/17 01:42:51;;;;;;;9.98;8.93;;;-1.20;99.90;;;;;;5045570;28;20049;-88
2024/01/17 01:45:17;;;;;;;8.32;7.47;;;-1.30;99.90;;;;;;5039578;28;20049;-87
2024/01/17 01:47:42;;;;;;;10.63;9.52;;;-1.20;99.90;;;;;;5044655;28;20029;-88
2024/01/17 01:50:11;;;;;;;13.68;11.23;;;-1.30;99.90;;;;;;5046604;28;20048;-88
2024/01/17 01:52:40;;;;;;;11.55;10.52;;;-1.30;99.90;;;;;;5027556;28;20040;-85
2024/01/17 01:55:06;;;;;;;12.85;10.77;;;-0.10;99.90;;;;;;5045951;28;20045;-83
2024/01/17 01:57:36;;;;;;;9.05;7.95;;;-1.20;99.90;;;;;;5063162;28;20039;-83
2024/01/17 02:00:04;;;;;;;11.93;10.43;;;0.30;99.90;;;;;;5063297;28;20052;-86
2024/01/17 02:02:34;;;;;;;11.77;9.45;;;-1.20;99.90;;;;;;5063006;28;20093;-83
2024/01/17 02:05:03;;;;;;;11.25;9.48;;;-1.20;99.90;;;;;;5062360;28;20052;-84
2024/01/17 02:07:32;;;;;;;10.05;8.98;;;-1.30;99.90;;;;;;5064062;28;20064;-84
2024/01/17 02:10:01;;;;;;;13.18;10.40;;;-1.30;99.90;;;;;;5062264;28;20045;-81
2024/01/17 02:12:27;;;;;;;12.50;9.63;;;-1.20;99.90;;;;;;5063351;28;20037;-83
2024/01/17 02:14:53;;;;;;;18.20;14.40;;;-1.30;99.90;;;;;;5062886;28;20100;-84
2024/01/17 02:17:18;;;;;;;11.68;8.75;;;-1.30;99.90;;;;;;5058291;28;20099;-87
2024/01/17 02:19:45;;;;;;;10.80;9.68;;;-1.10;99.90;;;;;;5063693;28;20040;-89
2024/01/17 02:22:10;;;;;;;10.95;9.75;;;0.00;99.90;;;;;;5061382;28;20060;-85
2024/01/17 02:24:36;;;;;;;14.10;12.60;;;-1.30;99.90;;;;;;5063505;28;20037;-83
2024/01/17 02:27:02;;;;;;;11.23;9.20;;;-1.30;99.90;;;;;;5061520;28;20072;-83
2024/01/17 02:29:28;;;;;;;10.57;9.57;;;-1.30;99.90;;;;;;5063802;28;20059;-87
2024/01/17 02:31:55;;;;;;;13.90;12.13;;;-0.50;99.90;;;;;;5062859;28;20037;-84
2024/01/17 02:34:21;;;;;;;9.65;8.43;;;-1.40;99.90;;;;;;5062537;28;20041;-82
2024/01/17 02:36:47;;;;;;;10.52;9.32;;;-1.30;99.90;;;;;;5063537;28;20055;-86
2024/01/17 02:39:15;;;;;;;17.30;8.75;;;-1.30;99.90;;;;;;5061773;28;20099;-85
2024/01/17 02:41:43;;;;;;;11.27;9.05;;;-0.60;99.90;;;;;;5048656;28;20049;-82
2024/01/17 02:44:09;;;;;;;9.90;8.73;;;-1.30;99.90;;;;;;5061804;28;20052;-85
2024/01/17 02:46:35;;;;;;;12.20;10.18;;;-1.40;99.90;;;;;;5062865;28;20037;-85
2024/01/17 02:49:00;;;;;;;12.40;9.85;;;-1.30;99.90;;;;;;5062643;28;20044;-86
2024/01/17 02:51:26;;;;;;;12.30;9.30;;;-1.30;99.90;;;;;;5062520;28;20043;-83
2024/01/17 02:53:52;;;;;;;9.43;8.50;;;-1.30;99.90;;;;;;5062991;28;20480;-86
2024/01/17 02:56:17;;;;;;;8.85;8.15;;;-1.10;99.90;;;;;;5043558;28;20045;-85
2024/01/17 02:58:43;;;;;;;14.70;9.98;;;-1.30;99.90;;;;;;5063267;28;20048;-83
2024/01/17 03:01:09;;;;;;;13.77;11.27;;;-1.30;99.90;;;;;;5061135;28;20073;-85
2024/01/17 03:03:35;;;;;;;10.82;9.75;;;-1.30;99.90;;;;;;5062781;28;20118;-87
2024/01/17 03:06:01;;;;;;;12.55;11.30;;;-1.30;99.90;;;;;;5061962;28;20036;-86
2024/01/17 03:08:27;;;;;;;9.23;8.15;;;-1.30;99.90;;;;;;5044756;28;20084;-82
2024/01/17 03:10:53;;;;;;;12.23;9.18;;;-1.30;99.90;;;;;;5063044;28;20037;-84
2024/01/17 03:13:18;;;;;;;11.35;9.88;;;-1.30;99.90;;;;;;5060562;28;20044;-84
2024/01/17 03:15:44;;;;;;;11.50;10.38;;;-1.40;99.90;;;;;;5045301;28;20495;-85
2024/01/17 03:18:13;;;;;;;11.25;8.50;;;-1.40;99.90;;;;;;5061283;28;20095;-87
2024/01/17 03:20:42;;;;;;;11.48;9.75;;;-1.40;99.90;;;;;;5062877;28;20068;-84
2024/01/17 03:23:08;;;;;;;11.60;9.48;;;-1.40;99.90;;;;;;5061266;28;20121;-84
2024/01/17 03:25:34;;;;;;;10.32;9.27;;;-1.40;99.90;;;;;;5062031;28;20037;-86
2024/01/17 03:27:59;;;;;;;12.13;9.80;;;-1.40;99.90;;;;;;5062575;28;20037;-86
2024/01/17 03:30:25;;;;;;;8.93;8.13;;;-0.80;99.90;;;;;;5061048;28;20458;-89
2024/01/17 03:32:51;;;;;;;10.55;7.80;;;-1.40;99.90;;;;;;5062753;28;20041;-85
2024/01/17 03:35:16;;;;;;;13.55;9.18;;;-1.40;99.90;;;;;;5061227;28;20063;-86
2024/01/17 03:37:42;;;;;;;12.45;10.35;;;-1.40;99.90;;;;;;5044389;28;20037;-85
2024/01/17 03:40:08;;;;;;;9.55;8.68;;;-1.50;99.90;;;;;;5061710;28;20060;-82
2024/01/17 03:42:34;;;;;;;9.07;8.10;;;-1.50;99.90;;;;;;5062240;28;20041;-85
2024/01/17 03:45:00;;;;;;;10.60;9.27;;;-1.50;99.90;;;;;;5062346;28;20045;-84
2024/01/17 03:47:25;;;;;;;7.10;6.30;;;-1.30;99.90;;;;;;5061457;28;20059;-85
2024/01/17 03:49:51;;;;;;;9.25;8.43;;;-1.50;99.90;;;;;;5062733;28;20045;-86
2024/01/17 03:52:17;;;;;;;9.90;8.85;;;-1.50;99.90;;;;;;5060942;28;20063;-88
2024/01/17 03:54:43;;;;;;;12.57;10.50;;;-1.50;99.90;;;;;;5062664;28;20459;-85
2024/01/17 03:57:08;;;;;;;9.40;8.25;;;-1.50;99.90;;;;;;5061260;28;20041;-86
2024/01/17 03:59:34;;;;;;;8.73;7.80;;;-0.90;99.90;;;;;;5062197;28;20068;-87
2024/01/17 04:02:00;;;;;;;7.28;6.68;;;-1.40;99.90;;;;;;5061871;28;20037;-85
2024/01/17 04:04:26;;;;;;;9.32;8.43;;;-1.40;99.90;;;;;;5060456;28;20057;-86
2024/01/17 04:06:53;;;;;;;9.60;8.65;;;-1.40;99.90;;;;;;5062118;28;20053;-88
2024/01/17 04:09:19;;;;;;;9.75;7.88;;;-1.40;99.90;;;;;;5060897;28;20093;-88
2024/01/17 04:11:45;;;;;;;10.88;8.80;;;-1.40;99.90;;;;;;5063096;28;20045;-82
2024/01/17 04:14:12;;;;;;;8.40;7.65;;;0.40;99.90;;;;;;5060547;28;20052;-86
2024/01/17 04:16:39;;;;;;;11.63;10.52;;;-1.40;99.90;;;;;;5062143;28;20067;-86
2024/01/17 04:19:06;;;;;;;12.13;11.02;;;-1.40;99.90;;;;;;5061918;28;20048;-86
2024/01/17 04:21:32;;;;;;;9.77;7.05;;;-1.40;99.90;;;;;;5060686;28;20064;-92
2024/01/17 04:23:57;;;;;;;9.10;7.60;;;-1.40;99.90;;;;;;5060934;28;20229;-87
2024/01/17 04:26:25;;;;;;;11.57;9.20;;;-1.40;99.90;;;;;;5063009;28;20040;-89
2024/01/17 04:28:52;;;;;;;12.45;8.63;;;-1.40;99.90;;;;;;5064606;28;20040;-89
2024/01/17 04:31:28;;;;;;;12.00;8.88;;;-1.50;99.90;;;;;;5063167;28;20052;-88
2024/01/17 04:33:55;;;;;;;10.20;9.20;;;-1.50;99.90;;;;;;5065934;28;20060;-88
2024/01/17 04:36:22;;;;;;;9.55;8.57;;;-1.50;99.90;;;;;;5065657;28;20041;-84
2024/01/17 04:38:48;;;;;;;7.93;7.15;;;-1.30;99.90;;;;;;5064399;28;20047;-87
2024/01/17 04:41:15;;;;;;;11.50;10.50;;;-1.50;99.90;;;;;;5065631;28;20079;-84
2024/01/17 04:43:42;;;;;;;9.38;8.48;;;-1.20;99.90;;;;;;5054205;28;20045;-86
2024/01/17 04:46:17;;;;;;;11.05;7.85;;;-1.30;99.90;;;;;;5065682;28;20037;-82
2024/01/17 04:48:44;;;;;;;8.50;7.63;;;-1.50;99.90;;;;;;5064567;28;20045;-89
2024/01/17 04:51:11;;;;;;;8.13;7.32;;;-1.50;99.90;;;;;;5065231;28;20041;-87
2024/01/17 04:53:37;;;;;;;9.60;8.60;;;-1.50;99.90;;;;;;5065159;28;20041;-85
2024/01/17 04:56:07;;;;;;;11.40;9.55;;;-1.50;99.90;;;;;;5046085;28;20049;-88
2024/01/17 04:58:33;;;;;;;10.10;8.45;;;-1.50;99.90;;;;;;5065452;28;20530;-87
2024/01/17 05:00:59;;;;;;;10.70;7.55;;;-1.50;99.90;;;;;;5063446;28;20073;-90
2024/01/17 05:03:25;;;;;;;8.40;7.50;;;-1.50;99.90;;;;;;5065292;28;20057;-87
2024/01/17 05:05:51;;;;;;;11.88;7.90;;;-1.50;99.90;;;;;;5063972;28;20059;-89
2024/01/17 05:08:17;;;;;;;11.35;10.10;;;-1.50;99.90;;;;;;5064743;28;20072;-86
2024/01/17 05:10:44;;;;;;;9.93;8.88;;;-0.30;99.90;;;;;;5051240;28;20102;-85
2024/01/17 05:13:11;;;;;;;9.93;8.90;;;-1.50;99.90;;;;;;5063813;28;20045;-86
2024/01/17 05:15:36;;;;;;;8.88;8.13;;;-1.50;99.90;;;;;;5049058;28;20098;-89
2024/01/17 05:18:04;;;;;;;13.02;11.90;;;-1.40;99.90;;;;;;5063393;28;20123;-87
2024/01/17 05:20:30;;;;;;;9.35;7.80;;;-1.50;99.90;;;;;;5065287;28;20037;-88
2024/01/17 05:22:55;;;;;;;8.50;7.75;;;-1.50;99.90;;;;;;5044697;28;20060;-89
2024/01/17 05:25:21;;;;;;;7.72;6.78;;;-1.50;99.90;;;;;;5064721;28;20063;-83
2024/01/17 05:27:51;;;;;;;8.20;7.40;;;-1.60;99.90;;;;;;5065120;28;20080;-85
2024/01/17 05:30:18;;;;;;;7.78;7.05;;;-1.60;99.90;;;;;;5063371;28;20033;-86
2024/01/17 05:32:44;;;;;;;10.13;8.98;;;-1.60;99.90;;;;;;5048161;28;20041;-86
2024/01/17 05:35:10;;;;;;;10.48;6.65;;;-1.40;99.90;;;;;;5063075;28;20049;-89
2024/01/17 05:37:40;;;;;;;10.52;8.23;;;-1.60;99.90;;;;;;5064348;28;20037;-87
2024/01/17 05:40:08;;;;;;;9.25;8.18;;;-1.60;99.90;;;;;;5063182;28;20075;-89
2024/01/17 05:42:34;;;;;;;10.02;7.72;;;-1.60;99.90;;;;;;5064315;28;20037;-87
2024/01/17 05:45:00;;;;;;;11.43;8.45;;;-1.70;99.90;;;;;;5064297;28;20037;-90
2024/01/17 05:47:26;;;;;;;8.57;7.22;;;-1.20;99.90;;;;;;5063564;28;20041;-85
2024/01/17 05:49:51;;;;;;;9.00;8.10;;;-1.70;99.90;;;;;;5064457;28;20040;-89
2024/01/17 05:52:17;;;;;;;8.57;6.28;;;-1.70;99.90;;;;;;5063741;28;20044;-87
2024/01/17 05:54:43;;;;;;;10.50;7.70;;;-1.80;99.90;;;;;;5064136;28;20044;-89
2024/01/17 05:57:09;;;;;;;9.18;7.85;;;-1.50;99.90;;;;;;5063197;28;20037;-87
2024/01/17 05:59:34;;;;;;;7.05;6.35;;;-1.10;99.90;;;;;;5064513;28;20092;-91
2024/01/17 06:02:00;;;;;;;7.07;6.38;;;-1.80;99.90;;;;;;5064543;28;20044;-86
2024/01/17 06:04:26;;;;;;;7.57;6.63;;;-1.90;99.90;;;;;;5062841;28;20063;-85
2024/01/17 06:06:51;;;;;;;10.77;8.45;;;-1.90;99.90;;;;;;5064376;28;20049;-88
2024/01/17 06:09:18;;;;;;;9.05;7.50;;;-2.00;99.90;;;;;;5062510;28;20091;-84
2024/01/17 06:11:44;;;;;;;9.88;8.13;;;-2.00;99.90;;;;;;5064053;28;20126;-88
2024/01/17 06:14:09;;;;;;;6.85;5.60;;;-2.00;99.90;;;;;;5062237;28;20060;-85
2024/01/17 06:16:35;;;;;;;8.23;7.32;;;-2.10;99.90;;;;;;5063735;28;20041;-83
2024/01/17 06:19:01;;;;;;;8.50;7.28;;;-2.10;99.90;;;;;;5063235;28;20045;-86
2024/01/17 06:21:26;;;;;;;8.05;7.25;;;-2.10;99.90;;;;;;5062995;28;20052;-86
2024/01/17 06:23:53;;;;;;;11.68;8.18;;;-2.10;99.90;;;;;;5063566;28;20384;-85
2024/01/17 06:26:19;;;;;;;10.98;8.63;;;-2.10;99.90;;;;;;5062067;28;20071;-90
2024/01/17 06:28:45;;;;;;;8.38;7.10;;;-2.20;99.90;;;;;;5063754;28;20112;-85
2024/01/17 06:31:10;;;;;;;9.50;7.25;;;-2.20;99.90;;;;;;5061543;28;20033;-85
2024/01/17 06:33:36;;;;;;;9.05;7.47;;;-2.20;99.90;;;;;;5063929;28;20069;-91
2024/01/17 06:36:02;;;;;;;10.55;6.72;;;-2.20;99.90;;;;;;5062393;28;20428;-83
2024/01/17 06:38:28;;;;;;;10.25;6.85;;;-2.20;99.90;;;;;;5063023;28;20040;-85
2024/01/17 06:40:53;;;;;;;9.75;7.20;;;-2.20;99.90;;;;;;5063315;28;20069;-86
2024/01/17 06:43:20;;;;;;;9.23;7.88;;;-2.20;99.90;;;;;;5061554;28;20045;-86
2024/01/17 06:45:46;;;;;;;10.15;7.47;;;-2.20;99.90;;;;;;5063674;28;20449;-85
2024/01/17 06:48:12;;;;;;;14.63;7.97;;;-2.20;99.90;;;;;;5060408;28;20037;-85
2024/01/17 06:50:38;;;;;;;9.07;8.05;;;-2.20;99.90;;;;;;5063687;28;20044;-86
2024/01/17 06:53:03;;;;;;;8.27;7.18;;;-2.20;99.90;;;;;;5043339;28;20056;-84
2024/01/17 06:55:29;;;;;;;10.10;7.47;;;-2.20;99.90;;;;;;5062847;28;20029;-84
2024/01/17 06:57:55;;;;;;;8.52;7.68;;;-2.20;99.90;;;;;;5063219;28;20055;-84
2024/01/17 07:00:20;;;;;;;9.27;7.72;;;-2.30;99.90;;;;;;5061467;28;20492;-88
2024/01/17 07:02:47;;;;;;;9.82;7.32;;;-2.30;99.90;;;;;;5063209;28;20049;-84
2024/01/17 07:05:13;;;;;;;9.23;8.40;;;-2.20;99.90;;;;;;5061718;28;20041;-84
2024/01/17 07:07:39;;;;;;;10.57;7.57;;;-2.20;99.90;;;;;;5063257;28;20044;-83
2024/01/17 07:10:06;;;;;;;10.10;9.10;;;-2.20;99.90;;;;;;5061785;28;20451;-89
2024/01/17 07:12:31;;;;;;;8.40;7.40;;;-2.20;99.90;;;;;;5062442;28;20037;-84
2024/01/17 07:14:57;;;;;;;9.25;7.53;;;-2.30;99.90;;;;;;5062595;28;20045;-87
2024/01/17 07:17:23;;;;;;;10.52;9.20;;;-2.30;99.90;;;;;;5062014;28;20037;-85
2024/01/17 07:19:49;;;;;;;10.48;8.20;;;-2.30;99.90;;;;;;5063150;28;20045;-85
2024/01/17 07:22:14;;;;;;;7.63;6.82;;;-2.30;99.90;;;;;;5061398;28;20044;-86
2024/01/17 07:24:43;;;;;;;8.48;7.63;;;-2.30;99.90;;;;;;5062615;28;20128;-86
2024/01/17 07:27:09;;;;;;;9.90;7.95;;;-2.30;99.90;;;;;;5061303;28;20040;-84
2024/01/17 07:29:35;;;;;;;8.38;7.45;;;-2.30;99.90;;;;;;5062989;28;20048;-87
2024/01/17 07:32:01;;;;;;;8.93;8.02;;;-2.40;99.90;;;;;;5061957;28;20044;-84
2024/01/17 07:34:26;;;;;;;11.30;7.07;;;-2.40;99.90;;;;;;5061368;28;20045;-85
2024/01/17 07:36:52;;;;;;;10.75;7.30;;;-1.70;99.90;;;;;;5044728;28;20194;-84
2024/01/17 07:39:21;;;;;;;7.43;6.63;;;-1.70;99.90;;;;;;5060447;28;20060;-88
2024/01/17 07:41:47;;;;;;;8.05;7.30;;;-2.40;99.90;;;;;;5061616;28;20096;-87
2024/01/17 07:44:14;;;;;;;8.20;7.15;;;-2.40;99.90;;;;;;5048398;28;20572;-84
2024/01/17 07:46:40;;;;;;;6.50;5.90;;;-2.40;99.90;;;;;;5062929;28;20330;-85
2024/01/17 07:49:06;;;;;;;11.45;6.88;;;-2.40;99.90;;;;;;5061853;28;20045;-83
2024/01/17 07:51:31;;;;;;;7.60;6.15;;;-2.40;99.90;;;;;;5061726;28;20083;-87
2024/01/17 07:53:57;;;;;;;8.50;6.28;;;-2.30;99.90;;;;;;5062139;28;20045;-86
2024/01/17 07:56:23;;;;;;;8.13;6.40;;;-2.30;99.90;;;;;;5060641;28;20117;-85
2024/01/17 07:58:50;;;;;;;7.90;6.15;;;-2.40;99.90;;;;;;5063052;28;20052;-84
2024/01/17 08:01:16;;;;;;;10.88;5.72;;;-1.70;99.90;;;;;;5064701;28;20080;-87
2024/01/17 08:03:42;;;;;;;7.93;6.05;;;-2.40;99.90;;;;;;5066438;28;20127;-87
2024/01/17 08:06:07;;;;;;;10.10;6.93;;;-2.40;99.90;;;;;;5065556;28;20049;-88
2024/01/17 08:08:33;;;;;;;7.32;5.85;;;-2.40;99.90;;;;;;5065572;28;20044;-87
2024/01/17 08:10:59;;;;;;;10.35;6.35;;;-2.40;99.90;;;;;;5066652;28;20079;-86
2024/01/17 08:13:24;;;;;;;6.72;6.13;;;-2.40;99.90;;;;;;5055632;28;20075;-86
2024/01/17 08:15:50;;;;;;;7.10;6.15;;;-1.80;99.90;;;;;;5059099;28;20044;-87
2024/01/17 08:18:16;;;;;;;7.40;6.28;;;-2.30;99.90;;;;;;5051180;28;20053;-86
2024/01/17 08:20:43;;;;;;;8.52;7.18;;;-2.30;99.90;;;;;;5057703;28;20060;-88
2024/01/17 08:23:09;;;;;;;8.68;6.43;;;-2.30;99.90;;;;;;5063633;28;20048;-86
2024/01/17 08:25:34;;;;;;;7.68;6.15;;;-2.30;99.90;;;;;;5063990;28;20533;-86
2024/01/17 08:28:00;;;;;;;7.88;6.18;;;-2.30;99.90;;;;;;5064287;28;20382;-86
2024/01/17 08:30:26;;;;;;;13.77;6.28;;;-2.30;99.90;;;;;;5055692;28;20045;-86
2024/01/17 08:32:53;;;;;;;7.20;6.13;;;-2.30;99.90;;;;;;5051952;28;20084;-84
2024/01/17 08:35:22;;;;;;;6.60;5.68;;;-2.30;99.90;;;;;;5062692;28;20041;-89
2024/01/17 08:37:48;;;;;;;9.50;7.10;;;-2.20;99.90;;;;;;5063386;28;20041;-87
2024/01/17 08:40:13;;;;;;;7.30;5.88;;;-2.20;99.90;;;;;;5063898;28;20056;-86
2024/01/17 08:42:39;;;;;;;8.93;5.97;;;-2.20;99.90;;;;;;5051525;28;20124;-89
2024/01/17 08:45:06;;;;;;;9.52;7.15;;;-2.20;99.90;;;;;;5063472;28;20056;-89
2024/01/17 08:47:32;;;;;;;8.48;6.05;;;-2.20;99.90;;;;;;5063524;28;20079;-89
2024/01/17 08:50:00;;;;;;;7.07;6.13;;;-2.20;99.90;;;;;;5063081;28;20756;-87
2024/01/17 08:52:28;;;;;;;10.18;6.93;;;-2.20;99.90;;;;;;5062916;28;20045;-86
2024/01/17 08:55:00;;;;;;;10.13;6.55;;;-2.20;99.90;;;;;;5064402;28;20089;-87
2024/01/17 08:57:29;;;;;;;7.82;6.93;;;-2.10;99.90;;;;;;5063337;28;20507;-87
2024/01/17 08:59:54;;;;;;;9.30;6.25;;;-2.10;99.90;;;;;;5064076;28;20390;-89
2024/01/17 09:02:20;;;;;;;6.75;5.90;;;-2.10;99.90;;;;;;5062917;28;20095;-87
2024/01/17 09:04:46;;;;;;;8.18;6.70;;;-2.00;99.90;;;;;;5062212;28;20049;-89
2024/01/17 09:07:11;;;;;;;7.63;6.50;;;-2.10;99.90;;;;;;5064049;28;20041;-85
2024/01/17 09:09:37;;;;;;;8.80;7.28;;;-2.00;99.90;;;;;;5062633;28;20071;-89
2024/01/17 09:12:03;;;;;;;10.25;7.63;;;-2.10;99.90;;;;;;5063351;28;20037;-86
2024/01/17 09:14:29;;;;;;;6.97;6.25;;;-2.00;99.90;;;;;;5062053;28;20093;-90
2024/01/17 09:16:55;;;;;;;9.15;6.22;;;-2.00;99.90;;;;;;5063765;28;20041;-90
2024/01/17 09:19:21;;;;;;;9.38;7.05;;;-1.90;99.90;;;;;;5064085;28;20095;-89
2024/01/17 09:21:47;;;;;;;6.72;6.10;;;-1.90;99.90;;;;;;5060490;28;20048;-88
2024/01/17 09:24:13;;;;;;;7.20;6.10;;;-1.50;99.90;;;;;;5058238;28;20501;-87
2024/01/17 09:26:39;;;;;;;11.82;6.35;;;-1.90;99.90;;;;;;5045254;28;20048;-91
2024/01/17 09:29:05;;;;;;;7.72;5.80;;;-1.80;99.90;;;;;;5062304;28;20048;-88
2024/01/17 09:31:30;;;;;;;8.45;5.75;;;-1.80;99.90;;;;;;5056836;28;20041;-89
2024/01/17 09:33:56;;;;;;;6.82;6.05;;;-1.20;99.90;;;;;;5050488;28;20119;-86
2024/01/17 09:36:22;;;;;;;6.93;6.18;;;-1.20;99.90;;;;;;5043313;28;20051;-88
2024/01/17 09:38:47;;;;;;;8.07;5.82;;;-1.70;99.90;;;;;;5056589;28;20053;-89
2024/01/17 09:41:13;;;;;;;6.43;5.43;;;-1.70;99.90;;;;;;5059989;28;20083;-89
2024/01/17 09:43:39;;;;;;;8.38;5.85;;;-1.60;99.90;;;;;;5059279;28;20056;-87
2024/01/17 09:46:11;;;;;;;5.50;4.82;;;-1.40;99.90;;;;;;5061311;28;20049;-86
2024/01/17 09:48:38;;;;;;;8.82;6.40;;;-1.60;99.90;;;;;;5060729;28;20139;-87
2024/01/17 09:51:04;;;;;;;7.82;6.25;;;-1.30;99.90;;;;;;5058109;28;20042;-86
2024/01/17 09:53:33;;;;;;;7.35;6.18;;;-1.50;99.90;;;;;;5062215;28;20044;-88
2024/01/17 09:56:01;;;;;;;9.48;5.22;;;-1.50;99.90;;;;;;5058354;28;20052;-87
2024/01/17 09:58:32;;;;;;;7.28;5.60;;;-1.50;99.90;;;;;;5057475;28;20120;-88
2024/01/17 10:01:05;;;;;;;10.35;6.90;;;-1.40;99.90;;;;;;5057470;28;20120;-88
2024/01/17 10:03:36;;;;;;;8.40;5.55;;;-1.40;99.90;;;;;;5054787;28;20057;-89
2024/01/17 10:06:03;;;;;;;8.30;6.32;;;-1.40;99.90;;;;;;5042902;28;20093;-90
2024/01/17 10:08:31;;;;;;;8.93;6.45;;;-1.30;99.90;;;;;;5049916;28;20114;-89
2024/01/17 10:10:57;;;;;;;8.50;6.68;;;-1.30;99.90;;;;;;5063535;28;20049;-91
2024/01/17 10:13:23;;;;;;;8.00;5.72;;;-1.20;99.90;;;;;;5063494;28;20044;-90
2024/01/17 10:15:48;;;;;;;6.82;5.18;;;-1.40;99.90;;;;;;5064863;28;20095;-90
2024/01/17 10:18:15;;;;;;;8.68;5.63;;;-1.20;99.90;;;;;;5065525;28;20033;-94
2024/01/17 10:20:42;;;;;;;8.00;5.55;;;-1.20;99.90;;;;;;5065241;28;20067;-93
2024/01/17 10:23:08;;;;;;;7.28;5.40;;;-1.20;99.90;;;;;;5066386;28;20052;-94
2024/01/17 10:25:43;;;;;;;6.35;5.50;;;-1.20;99.90;;;;;;5068544;28;20116;-94
2024/01/17 10:28:08;;;;;;;7.10;5.22;;;-1.10;99.90;;;;;;5067767;28;20048;-91
2024/01/17 10:30:36;;;;;;;8.13;5.65;;;-1.10;99.90;;;;;;5063275;28;20037;-90
2024/01/17 10:33:02;;;;;;;8.32;4.85;;;-1.10;99.90;;;;;;5064161;28;20037;-92
2024/01/17 13:26:29;;;;;;;8.25;5.82;;;-0.60;99.90;;;;;;5889416;23;20250;31
2024/01/17 13:29:12;;;;;;;5.95;5.45;;;-0.60;99.90;;;;;;4855574;29;20077;-82
2024/01/17 13:31:38;;;;;;;9.70;5.72;;;-0.60;99.90;;;;;;4851344;29;20046;-81
2024/01/17 13:34:06;;;;;;;8.80;6.72;;;0.20;99.90;;;;;;4859798;29;20065;-80
2024/01/17 13:36:32;;;;;;;6.75;6.07;;;-0.70;99.90;;;;;;4861840;23;20120;-92
2024/01/17 13:38:59;;;;;;;8.90;6.05;;;-0.20;99.90;;;;;;4831215;29;20163;-89
2024/01/17 13:41:26;;;;;;;8.60;6.03;;;-0.60;99.90;;;;;;4867387;29;20102;-90
2024/01/17 13:43:53;;;;;;;7.85;5.65;;;-0.70;99.90;;;;;;4850988;29;20054;-89
2024/01/17 13:46:19;;;;;;;7.28;6.15;;;-0.60;99.90;;;;;;4845959;29;20054;-89
2024/01/17 13:48:46;;;;;;;7.80;6.13;;;-0.60;99.90;;;;;;4848513;29;20046;-89
2024/01/17 13:51:12;;;;;;;7.28;5.68;;;-0.50;99.90;;;;;;4870087;29;20053;-88
2024/01/17 13:53:41;;;;;;;11.27;6.55;;;-0.60;99.90;;;;;;4840290;29;20513;-88
2024/01/17 13:56:09;;;;;;;7.90;6.03;;;1.10;99.90;;;;;;4850731;29;20084;-91
2024/01/17 13:58:37;;;;;;;7.80;6.32;;;-0.40;99.90;;;;;;4835990;29;20069;-87
2024/01/17 14:01:05;;;;;;;6.90;5.95;;;-0.50;99.90;;;;;;4831558;29;20057;-88
2024/01/17 14:03:31;;;;;;;8.02;5.60;;;-0.50;99.90;;;;;;4849405;29;20054;-88
2024/01/17 14:05:57;;;;;;;7.80;5.50;;;-0.60;99.90;;;;;;4849782;29;20077;-85
2024/01/17 14:08:23;;;;;;;10.15;6.53;;;-0.50;99.90;;;;;;4869721;29;20443;-86
2024/01/17 14:10:49;;;;;;;9.65;6.22;;;-0.50;99.90;;;;;;4870908;29;20069;-88
2024/01/17 14:13:14;;;;;;;9.02;6.50;;;-0.50;99.90;;;;;;4836365;29;20075;-88
2024/01/17 14:15:43;;;;;;;6.57;5.18;;;-0.50;99.90;;;;;;4845287;29;20050;-88
2024/01/17 14:18:10;;;;;;;8.55;5.45;;;-0.50;99.90;;;;;;4831363;29;20065;-86
2024/01/17 14:20:36;;;;;;;9.75;6.30;;;-0.50;99.90;;;;;;4833258;29;20043;-86
2024/01/17 14:23:02;;;;;;;7.28;6.00;;;-0.30;99.90;;;;;;4833063;29;20154;-85
2024/01/17 14:25:28;;;;;;;8.25;5.90;;;-0.50;99.90;;;;;;4842364;29;20053;-86
2024/01/17 14:27:54;;;;;;;7.32;5.95;;;-0.50;99.90;;;;;;4869649;29;20053;-87
2024/01/17 14:30:19;;;;;;;8.45;5.22;;;0.10;99.90;;;;;;4867319;29;20045;-86
2024/01/17 14:32:45;;;;;;;7.05;5.72;;;-0.60;99.90;;;;;;4869378;29;20573;-85
2024/01/17 14:35:11;;;;;;;6.30;5.70;;;-0.60;99.90;;;;;;4867149;29;20085;-86
2024/01/17 14:37:39;;;;;;;8.98;6.43;;;-0.60;99.90;;;;;;4843760;29;20054;-86
2024/01/17 14:40:08;;;;;;;9.20;6.88;;;-0.60;99.90;;;;;;4834184;29;20049;-86
2024/01/17 14:42:34;;;;;;;10.43;6.20;;;-0.60;99.90;;;;;;4867411;29;20450;-86
2024/01/17 14:45:00;;;;;;;10.05;6.47;;;-0.60;99.90;;;;;;4869024;29;20064;-85
2024/01/17 14:47:28;;;;;;;7.40;5.82;;;-0.60;99.90;;;;;;4835469;29;20081;-86
2024/01/17 14:49:54;;;;;;;8.93;6.30;;;-0.50;99.90;;;;;;4851118;29;20046;-86
2024/01/17 14:52:21;;;;;;;7.57;5.75;;;-0.50;99.90;;;;;;4848893;29;20045;-86
2024/01/17 14:54:47;;;;;;;5.78;5.28;;;-0.60;99.90;;;;;;4836316;29;20057;-86
2024/01/17 14:57:13;;;;;;;9.40;5.80;;;-0.60;99.90;;;;;;4858103;29;20057;-87
2024/01/17 14:59:38;;;;;;;10.07;6.30;;;-0.60;99.90;;;;;;4869696;29;20049;-86
2024/01/17 15:02:05;;;;;;;6.25;5.60;;;-0.60;99.90;;;;;;4869239;29;20045;-85
2024/01/17 15:04:34;;;;;;;9.82;6.18;;;-0.60;99.90;;;;;;4867698;29;20067;-86
2024/01/17 15:07:01;;;;;;;7.50;5.97;;;-0.60;99.90;;;;;;4869848;29;20046;-86
2024/01/17 15:09:27;;;;;;;6.95;5.60;;;-0.60;99.90;;;;;;4865364;29;20053;-86
2024/01/17 15:11:53;;;;;;;8.63;6.75;;;-0.60;99.90;;;;;;4866251;29;20517;-86
2024/01/17 15:14:22;;;;;;;7.07;5.72;;;-0.60;99.90;;;;;;4866528;29;20114;-85
2024/01/17 15:16:49;;;;;;;7.18;6.53;;;-0.60;99.90;;;;;;4852730;29;20054;-86
2024/01/17 15:19:14;;;;;;;6.93;6.22;;;-0.60;99.90;;;;;;4850299;29;20046;-86
2024/01/17 15:21:40;;;;;;;7.00;6.15;;;-0.60;99.90;;;;;;4834261;29;20052;-87
2024/01/17 15:24:08;;;;;;;6.38;5.70;;;-0.60;99.90;;;;;;4850756;29;20545;-86
2024/01/17 15:26:34;;;;;;;7.20;5.60;;;-0.60;99.90;;;;;;4833143;29;20045;-86
2024/01/17 15:29:00;;;;;;;6.70;6.00;;;-0.10;99.90;;;;;;4819079;29;20046;-87